Aviation Digital Data Service (ADDS)

Output produced by METARs form (0807 UTC 19 August 2022)
found at http://www.aviationweather.gov/metar/data/
 
KSAV 190753Z AUTO 19004KT 10SM OVC011 23/22 A2997 RMK AO2 CIG 008V013 SLP149 T02280222
KSAV 190530Z 1906/2006 14004KT 6SM BR SCT020 BKN120 
     FM190900 20003KT 5SM BR FEW009 BKN020 
     TEMPO 1911/1915 BKN009 
     FM191500 21006KT P6SM SCT022 BKN050 
     FM192000 16008KT P6SM VCSH SCT035 BKN100 
     FM200200 18004KT P6SM BKN100
       
KSVN 190655Z AUTO 00000KT 10SM OVC150 23/23 A2995 RMK AO2 SLP145 T02330233 $
TAF KSVN 190400Z 1904/2010 VRB06KT 9999 BKN025 QNH2994INS 
     BECMG 1908/1909 VRB06KT 8000 -SHRA OVC018 QNH2997INS 
     TEMPO 1908/1923 VRB25G35KT 8000 -TSRA OVC018CB 
     BECMG 1923/1924 18006KT 8000 BR SCT026 QNH3001INS 
     BECMG 2000/2001 18006KT 8000 -SHRA SCT011 QNH3002INS 
     TEMPO 2004/2005 25010G25KT 8000 -TSRA SCT011CB BKN019 OVC027 
     BECMG 2004/2005 20006KT 8000 -SHRA SCT011 QNH3006INS TX29/1919Z TN21/1911Z
       
KLHW 190755Z AUTO 00000KT 10SM OVC008 23/22 A2995 RMK AO2 SLP145 T02270220 $
KTBR 190755Z AUTO 00000KT 5SM BR OVC004 22/21 A2997 RMK AO2 T02230212
KVDI 190755Z AUTO 00000KT 1SM BR OVC003 23/23 A2999 RMK AO2
KJYL 190755Z AUTO 00000KT 7SM -RA BKN016 BKN023 BKN029 23/22 A2999 RMK AO2 T02280221
KDBN 190755Z AUTO 00000KT 10SM OVC007 23/22 A3000 RMK AO2
KJES 190755Z AUTO 00000KT 7SM BKN019 22/21 A3000 RMK AO2
KSSI 190753Z AUTO 21006KT 10SM CLR 24/22 A2998 RMK AO2 SLP152 T02440222
KSSI 190533Z 1906/2006 24005KT P6SM SCT008 BKN250 
     FM191300 22007KT P6SM SCT015 SCT025 BKN250 
     FM191800 14009KT P6SM VCTS SCT035CB BKN070 BKN200 
     TEMPO 1920/1924 VRB15G25KT 3SM TSRA BKN025CB BKN040 
     FM200300 VRB04KT P6SM FEW050 SCT150 BKN250
       
KBQK 190755Z AUTO 18005KT 10SM SCT023 SCT120 23/22 A2998 RMK AO2 T02260223
KAYS 190755Z AUTO 23005KT 10SM OVC003 23/22 A2998 RMK AO2 T02280221
KNBC 190756Z 00000KT 10SM BKN031 BKN045 24/23 A2996 RMK AO2 SLP147 T02390228
TAF KNBC 1903/2003 VRB06KT 9999 SCT010 BKN030 OVC050 QNH2991INS 
     TEMPO 1903/1907 16006KT 4800 SHRA BR OVC010 
     BECMG 1907/1908 VRB06KT 9999 BKN030 BKN050 QNH2992INS 
     FM191430 13008KT 9999 BKN030 QNH2993INS 
     TEMPO 1915/1921 18012KT 4000 TSRA BR BKN020 T23/1911Z T30/1918Z
       
KHXD 190755Z AUTO 00000KT 7SM BKN037 24/24 A2997 RMK AO2